Time;durP1;ratioP1;P1;durP2;ratioP2;P2;SDS_P1;SDS_P2;PMS_P1;PMS_P2;Temp;Humidity;BMP_temperature;BMP_pressure;BME280_temperature;BME280_humidity;BME280_pressure;Samples;Min_cycle;Max_cycle;Signal;HPM_P1;HPM_P2
2021/11/04 00:02:10;;;;;;;0.10;0.10;;;;;;;8.08;66.93;100546.66;5035608;28;20029;-83
2021/11/04 00:04:36;;;;;;;0.10;0.10;;;;;;;8.08;66.75;100545.78;5038836;28;20124;-83
2021/11/04 00:07:05;;;;;;;0.40;0.40;;;;;;;8.08;66.62;100546.66;5035631;28;20037;-83
2021/11/04 00:09:32;;;;;;;0.10;0.10;;;;;;;8.05;66.53;100544.06;5025897;28;20037;-83
2021/11/04 00:11:59;;;;;;;0.32;0.32;;;;;;;8.02;66.78;100544.09;5026670;28;20032;-83
2021/11/04 00:14:25;;;;;;;1.20;1.10;;;;;;;8.03;66.60;100545.84;5026658;28;20374;-83
2021/11/04 00:16:51;;;;;;;0.20;0.20;;;;;;;8.05;67.26;100544.06;5026199;28;20112;-83
2021/11/04 00:19:17;;;;;;;0.20;0.20;;;;;;;8.04;67.33;100546.72;5019125;28;20095;-82
2021/11/04 00:21:44;;;;;;;0.20;0.20;;;;;;;8.05;67.16;100546.72;5039211;28;20040;-81
2021/11/04 00:24:10;;;;;;;0.20;0.20;;;;;;;8.06;67.15;100535.25;5016898;28;20645;-83
2021/11/04 00:26:37;;;;;;;0.40;0.40;;;;;;;8.03;66.63;100535.28;5029828;28;20033;-82
2021/11/04 00:29:03;;;;;;;0.20;0.20;;;;;;;8.01;66.67;100529.19;5039943;28;20021;-82
2021/11/04 00:31:29;;;;;;;0.22;0.22;;;;;;;7.98;66.72;100526.56;5043782;28;20036;-82
2021/11/04 00:33:56;;;;;;;0.10;0.10;;;;;;;7.95;66.40;100531.91;5043835;28;20108;-82
2021/11/04 00:36:23;;;;;;;0.17;0.17;;;;;;;7.91;66.44;100532.81;5047138;28;20026;-82
2021/11/04 00:38:50;;;;;;;0.20;0.20;;;;;;;7.88;66.63;100530.25;5046128;28;20028;-83
2021/11/04 00:41:18;;;;;;;0.55;0.55;;;;;;;7.85;66.25;100525.00;5042352;28;20021;-83
2021/11/04 00:43:45;;;;;;;0.10;0.10;;;;;;;7.82;66.36;100530.31;5036870;28;20029;-81
2021/11/04 00:46:12;;;;;;;0.10;0.10;;;;;;;7.80;66.40;100534.75;5032607;28;20033;-82
2021/11/04 00:48:38;;;;;;;0.57;0.57;;;;;;;7.78;66.62;100532.13;5038270;28;20079;-83
2021/11/04 00:51:04;;;;;;;0.10;0.10;;;;;;;7.76;66.46;100532.16;5035076;28;20396;-82
2021/11/04 00:53:32;;;;;;;0.10;0.10;;;;;;;7.71;66.82;100527.81;5034852;28;20026;-82
2021/11/04 00:56:01;;;;;;;0.10;0.10;;;;;;;7.68;66.11;100530.53;5029992;28;20038;-82
2021/11/04 00:58:27;;;;;;;0.13;0.13;;;;;;;7.64;65.80;100529.69;5030379;28;20112;-82
2021/11/04 01:00:54;;;;;;;0.10;0.10;;;;;;;7.59;66.28;100526.25;5033005;28;20029;-83
2021/11/04 01:03:22;;;;;;;0.10;0.10;;;;;;;7.57;66.53;100538.56;5037062;28;20025;-82
2021/11/04 01:05:49;;;;;;;0.10;0.10;;;;;;;7.53;66.56;100529.81;5037119;28;20040;-83
2021/11/04 01:08:15;;;;;;;0.10;0.10;;;;;;;7.51;66.05;100530.72;5035930;28;20033;-83
2021/11/04 01:10:41;;;;;;;0.10;0.10;;;;;;;7.48;66.54;100533.38;5031618;28;20364;-82
2021/11/04 01:13:07;;;;;;;0.10;0.10;;;;;;;7.44;66.31;100536.06;5040420;28;20038;-83
2021/11/04 01:15:34;;;;;;;0.10;0.10;;;;;;;7.38;66.36;100530.00;5041082;28;20468;-83
2021/11/04 01:18:00;;;;;;;0.10;0.10;;;;;;;7.34;66.13;100530.91;5037015;28;20502;-82
2021/11/04 01:20:27;;;;;;;0.13;0.13;;;;;;;7.32;66.46;100525.66;5040375;28;20029;-83
2021/11/04 01:22:55;;;;;;;0.20;0.20;;;;;;;7.29;66.76;100529.22;5032011;28;20068;-83
2021/11/04 01:25:21;;;;;;;0.10;0.10;;;;;;;7.27;66.45;100524.84;5037733;28;20036;-83
2021/11/04 01:27:47;;;;;;;0.10;0.10;;;;;;;7.26;66.86;100525.75;5035582;28;20506;-83
2021/11/04 01:30:14;;;;;;;0.15;0.15;;;;;;;7.24;66.90;100516.97;5042593;28;20082;-81
2021/11/04 01:32:40;;;;;;;0.20;0.20;;;;;;;7.21;66.35;100511.75;5038179;28;20112;-83
2021/11/04 01:35:08;;;;;;;0.65;0.65;;;;;;;7.16;65.82;100519.69;5039596;28;20112;-83
2021/11/04 01:37:35;;;;;;;0.10;0.10;;;;;;;7.11;66.18;100517.09;5039966;28;20029;-83
2021/11/04 01:40:03;;;;;;;0.50;0.50;;;;;;;7.07;66.31;100502.22;5040524;28;20072;-83
2021/11/04 01:42:29;;;;;;;0.20;0.20;;;;;;;7.06;66.04;100518.06;5036983;28;20396;-82
2021/11/04 01:44:55;;;;;;;0.10;0.10;;;;;;;7.01;66.20;100520.72;5033074;28;20168;-82
2021/11/04 01:47:21;;;;;;;0.10;0.10;;;;;;;6.93;66.53;100523.44;5033277;28;20481;-83
2021/11/04 01:49:48;;;;;;;0.10;0.10;;;;;;;6.88;66.12;100525.25;5030320;28;20034;-83
2021/11/04 01:52:15;;;;;;;0.10;0.10;;;;;;;6.85;66.17;100521.78;5031945;28;20034;-83
2021/11/04 01:54:41;;;;;;;0.10;0.10;;;;;;;6.80;66.13;100514.81;5032725;28;20033;-82
2021/11/04 01:57:08;;;;;;;0.20;0.20;;;;;;;6.76;66.27;100523.59;5037447;28;20405;-83
2021/11/04 01:59:34;;;;;;;0.10;0.10;;;;;;;6.73;66.59;100521.03;5031332;28;20029;-82
2021/11/04 02:02:14;;;;;;;0.10;0.10;;;;;;;6.75;66.28;100513.09;5027180;28;20054;-83
2021/11/04 02:05:02;;;;;;;0.20;0.20;;;;;;;6.77;66.12;100516.59;5023945;28;20125;-82
2021/11/04 02:10:33;;;;;;;0.30;0.30;;;;;;;6.64;66.18;100518.44;5075825;28;20545;-81
2021/11/04 02:13:08;;;;;;;0.20;0.20;;;;;;;6.63;66.21;100514.97;5062265;28;20464;-82
2021/11/04 02:15:38;;;;;;;0.10;0.10;;;;;;;6.60;66.18;100514.13;5052380;28;20025;-83
2021/11/04 02:18:08;;;;;;;0.13;0.13;;;;;;;6.56;66.29;100512.41;5061072;28;20025;-82
2021/11/04 02:21:00;;;;;;;0.10;0.10;;;;;;;6.61;66.29;100502.69;5059140;28;20460;-81
2021/11/04 02:26:10;;;;;;;0.13;0.13;;;;;;;6.46;66.01;100507.19;5043561;28;20421;-83
2021/11/04 02:28:39;;;;;;;0.20;0.20;;;;;;;6.47;66.12;100508.94;5024010;28;20080;-82
2021/11/04 02:31:08;;;;;;;0.20;0.20;;;;;;;6.45;66.20;100500.19;5023584;28;20038;-83
2021/11/04 02:33:37;;;;;;;0.20;0.20;;;;;;;6.43;66.33;100501.97;5007255;28;20114;-82
2021/11/04 02:36:06;;;;;;;0.10;0.10;;;;;;;6.42;66.32;100500.22;5005692;28;20031;-82
2021/11/04 02:38:33;;;;;;;0.30;0.30;;;;;;;6.39;66.15;100500.28;5005788;28;20039;-82
2021/11/04 02:41:01;;;;;;;0.10;0.10;;;;;;;6.37;66.18;100496.75;5006537;28;20098;-81
2021/11/04 02:43:30;;;;;;;0.10;0.10;;;;;;;6.36;66.07;100502.06;5002379;28;20481;-82
2021/11/04 02:45:58;;;;;;;0.10;0.10;;;;;;;6.33;65.87;100505.59;5004426;28;20042;-82
2021/11/04 02:48:25;;;;;;;0.20;0.20;;;;;;;6.28;65.86;100502.97;5008755;28;20073;-82
2021/11/04 02:50:53;;;;;;;0.10;0.10;;;;;;;6.26;65.65;100498.63;5007497;28;20037;-82
2021/11/04 02:53:25;;;;;;;0.10;0.10;;;;;;;6.19;65.71;100495.13;5000411;28;20530;-82
2021/11/04 02:55:52;;;;;;;0.20;0.20;;;;;;;6.18;65.31;100493.41;5002158;28;20034;-82
2021/11/04 02:58:19;;;;;;;0.20;0.20;;;;;;;6.12;65.71;100489.06;5005224;28;20034;-81
2021/11/04 03:00:49;;;;;;;0.10;0.10;;;;;;;6.13;65.45;100500.44;5001710;28;20022;-82
2021/11/04 03:03:16;;;;;;;0.10;0.10;;;;;;;6.09;65.52;100499.63;5000996;28;20474;-83
2021/11/04 03:05:42;;;;;;;0.10;0.10;;;;;;;6.06;65.82;100502.25;5002681;28;20034;-82
2021/11/04 03:08:09;;;;;;;0.10;0.10;;;;;;;6.05;65.38;100505.75;5006919;28;20030;-82
2021/11/04 03:10:36;;;;;;;0.20;0.20;;;;;;;6.01;65.63;100508.41;4999585;28;20331;-81
2021/11/04 03:13:02;;;;;;;0.68;0.68;;;;;;;5.99;66.02;100516.31;4985785;28;20521;-81
2021/11/04 03:15:33;;;;;;;0.20;0.20;;;;;;;5.96;66.09;100516.31;4993330;28;20022;-82
2021/11/04 03:18:00;;;;;;;0.95;0.95;;;;;;;5.96;66.23;100524.22;5006160;28;20034;-82
2021/11/04 03:20:29;;;;;;;0.10;0.10;;;;;;;5.93;66.19;100525.09;5007766;28;20022;-82
2021/11/04 03:22:56;;;;;;;0.10;0.10;;;;;;;5.94;66.15;100528.59;5004039;28;20244;-82
2021/11/04 03:25:22;;;;;;;0.15;0.15;;;;;;;5.92;66.51;100532.97;5011771;28;20056;-82
2021/11/04 03:27:52;;;;;;;0.13;0.13;;;;;;;5.93;66.67;100534.72;5018590;28;20421;-82
2021/11/04 03:30:23;;;;;;;0.10;0.10;;;;;;;5.91;66.47;100533.91;5020197;28;20042;-82
2021/11/04 03:32:51;;;;;;;0.10;0.10;;;;;;;5.89;66.53;100531.25;5027433;28;20115;-82
2021/11/04 03:35:17;;;;;;;0.10;0.10;;;;;;;5.90;66.20;100533.00;5024938;28;20096;-81
2021/11/04 03:37:47;;;;;;;1.27;1.00;;;;;;;5.88;66.40;100533.91;5007645;28;20030;-82
2021/11/04 03:40:15;;;;;;;0.95;0.95;;;;;;;5.87;66.63;100532.13;5007587;28;20058;-82
2021/11/04 03:42:42;;;;;;;0.20;0.20;;;;;;;5.87;66.75;100542.66;5005641;28;20037;-82
2021/11/04 03:45:10;;;;;;;0.10;0.10;;;;;;;5.89;66.70;100543.53;5011143;28;20041;-82
2021/11/04 03:47:37;;;;;;;0.10;0.10;;;;;;;5.90;66.89;100547.91;5008667;28;20041;-82
2021/11/04 03:50:05;;;;;;;0.10;0.10;;;;;;;5.91;66.73;100544.41;5007661;28;20031;-82
2021/11/04 03:52:32;;;;;;;0.20;0.20;;;;;;;5.91;66.58;100549.66;5009666;28;20027;-83
2021/11/04 03:54:59;;;;;;;0.20;0.20;;;;;;;5.89;66.39;100546.16;5003255;28;20470;-82
2021/11/04 03:57:26;;;;;;;0.10;0.10;;;;;;;5.89;66.22;100538.28;5003880;28;20034;-82
2021/11/04 03:59:53;;;;;;;0.10;0.10;;;;;;;5.89;66.07;100546.16;5004236;28;20111;-82
2021/11/04 04:02:22;;;;;;;0.20;0.20;;;;;;;5.82;66.15;100535.69;5009599;28;20089;-82
2021/11/04 04:04:56;;;;;;;0.10;0.10;;;;;;;5.88;65.95;100545.31;5010200;28;20030;-82
2021/11/04 04:07:27;;;;;;;0.10;0.10;;;;;;;5.84;66.31;100543.53;5004231;28;20030;-82
2021/11/04 04:09:55;;;;;;;0.10;0.10;;;;;;;5.82;66.74;100547.97;5013361;28;20044;-82
2021/11/04 04:12:21;;;;;;;0.10;0.10;;;;;;;5.82;66.48;100547.97;5013514;28;20046;-82
2021/11/04 04:14:50;;;;;;;0.10;0.10;;;;;;;5.81;66.71;100549.69;5013966;28;20061;-83
2021/11/04 04:17:20;;;;;;;0.10;0.10;;;;;;;5.83;66.64;100553.22;5008308;28;20045;-82
2021/11/04 04:19:54;;;;;;;0.10;0.10;;;;;;;5.80;66.44;100553.19;5008717;28;20026;-82
2021/11/04 04:22:22;;;;;;;0.10;0.10;;;;;;;5.78;66.40;100555.00;5005937;28;20072;-82
2021/11/04 04:24:48;;;;;;;0.20;0.20;;;;;;;5.79;66.50;100555.84;5005071;28;20069;-82
2021/11/04 04:27:15;;;;;;;0.10;0.10;;;;;;;5.82;66.50;100559.34;5012557;28;20030;-82
2021/11/04 04:29:42;;;;;;;0.10;0.10;;;;;;;5.82;66.61;100558.47;5007524;28;20014;-82
2021/11/04 04:32:08;;;;;;;0.20;0.20;;;;;;;5.79;66.69;100556.72;5013074;28;20030;-82
2021/11/04 04:34:34;;;;;;;0.73;0.68;;;;;;;5.81;66.54;100554.97;5002682;28;20469;-82
2021/11/04 04:37:00;;;;;;;0.10;0.10;;;;;;;5.79;66.17;100561.97;5004303;28;20030;-82
2021/11/04 04:39:27;;;;;;;0.10;0.10;;;;;;;5.78;66.20;100560.25;5007719;28;20131;-83
2021/11/04 04:41:53;;;;;;;0.13;0.13;;;;;;;5.77;66.33;100565.50;5010276;28;20037;-83
2021/11/04 04:44:19;;;;;;;0.13;0.13;;;;;;;5.79;66.41;100576.88;5005988;28;20093;-83
2021/11/04 04:46:45;;;;;;;1.42;1.33;;;;;;;5.81;66.78;100576.00;5008264;28;20472;-83
2021/11/04 04:49:11;;;;;;;1.33;1.27;;;;;;;5.89;66.81;100573.31;5003850;28;20026;-83
2021/11/04 04:51:37;;;;;;;0.20;0.20;;;;;;;5.96;66.86;100572.41;5009583;28;20531;-82
2021/11/04 04:54:04;;;;;;;0.20;0.20;;;;;;;6.02;66.76;100568.03;5003697;28;20092;-83
2021/11/04 04:56:30;;;;;;;0.30;0.30;;;;;;;6.06;66.84;100569.78;5011499;28;20442;-82
2021/11/04 04:58:56;;;;;;;0.13;0.13;;;;;;;6.10;66.78;100571.50;5006260;28;20057;-83
2021/11/04 05:01:22;;;;;;;0.45;0.45;;;;;;;6.18;67.05;100574.06;5006506;28;20369;-83
2021/11/04 05:03:48;;;;;;;0.10;0.10;;;;;;;6.25;66.88;100579.28;5005728;28;20033;-83
2021/11/04 05:06:14;;;;;;;0.63;0.63;;;;;;;6.32;66.84;100565.22;5010309;28;20037;-83
2021/11/04 05:08:41;;;;;;;0.13;0.13;;;;;;;6.41;67.14;100564.25;5005579;28;20030;-83
2021/11/04 05:11:07;;;;;;;0.20;0.20;;;;;;;6.44;66.84;100560.75;5012434;28;20037;-83
2021/11/04 05:13:33;;;;;;;0.20;0.20;;;;;;;6.54;67.23;100561.53;5003153;28;20034;-83
2021/11/04 05:15:59;;;;;;;0.20;0.20;;;;;;;6.59;67.17;100557.09;5011920;28;20042;-83
2021/11/04 05:18:25;;;;;;;0.10;0.10;;;;;;;6.66;67.25;100561.44;5012170;28;20061;-82
2021/11/04 05:20:51;;;;;;;0.65;0.65;;;;;;;6.68;67.20;100562.31;5010146;28;20096;-82
2021/11/04 05:23:17;;;;;;;0.10;0.10;;;;;;;6.74;66.73;100562.25;5013336;28;20092;-83
2021/11/04 05:25:44;;;;;;;4.03;1.08;;;;;;;6.83;67.34;100568.31;5012916;28;20065;-82
2021/11/04 05:28:10;;;;;;;0.10;0.10;;;;;;;6.90;67.28;100570.00;5009144;28;20059;-82
2021/11/04 05:30:36;;;;;;;0.10;0.10;;;;;;;6.90;67.12;100570.91;5013567;28;20492;-83
2021/11/04 05:33:03;;;;;;;0.10;0.10;;;;;;;6.95;67.21;100569.09;5013376;28;20084;-83
2021/11/04 05:35:29;;;;;;;0.10;0.10;;;;;;;7.00;67.44;100578.72;5013132;28;20424;-82
2021/11/04 05:37:55;;;;;;;2.30;2.13;;;;;;;7.04;66.85;100577.78;5012659;28;20053;-82
2021/11/04 05:40:21;;;;;;;4.28;0.95;;;;;;;7.08;67.53;100583.00;5002504;28;20034;-83
2021/11/04 05:42:49;;;;;;;0.10;0.10;;;;;;;7.10;66.98;100567.19;5006775;28;20037;-82
2021/11/04 05:45:16;;;;;;;0.10;0.10;;;;;;;7.16;67.16;100561.00;5001474;28;20034;-82
2021/11/04 05:47:42;;;;;;;0.20;0.20;;;;;;;7.16;67.29;100572.38;5000373;28;20100;-83
2021/11/04 05:50:08;;;;;;;0.17;0.17;;;;;;;7.21;67.09;100565.31;4997588;28;20042;-82
2021/11/04 05:52:34;;;;;;;0.45;0.45;;;;;;;7.18;67.39;100575.00;5002805;28;20062;-83
2021/11/04 05:55:01;;;;;;;0.10;0.10;;;;;;;7.18;66.77;100581.16;4994675;28;20113;-83
2021/11/04 05:57:27;;;;;;;0.75;0.75;;;;;;;7.17;66.84;100583.81;5001690;28;20036;-83
2021/11/04 05:59:54;;;;;;;0.10;0.10;;;;;;;7.21;67.28;100588.16;5010238;28;20053;-82
2021/11/04 06:02:21;;;;;;;0.10;0.10;;;;;;;7.24;67.25;100590.75;4998712;28;20030;-81
2021/11/04 06:04:47;;;;;;;0.17;0.17;;;;;;;7.28;67.23;100584.59;5004622;28;20034;-82
2021/11/04 06:07:14;;;;;;;0.10;0.10;;;;;;;7.37;67.54;100592.38;5009696;28;20140;-83
2021/11/04 06:09:41;;;;;;;0.30;0.30;;;;;;;7.46;67.34;100591.41;5007365;28;20057;-82
2021/11/04 06:12:09;;;;;;;0.40;0.40;;;;;;;7.51;67.57;100588.72;5006568;28;20026;-83
2021/11/04 06:14:35;;;;;;;0.20;0.20;;;;;;;7.61;67.69;100591.25;5000177;28;20076;-83
2021/11/04 06:17:03;;;;;;;0.10;0.10;;;;;;;7.73;67.76;100600.75;5001815;28;20031;-82
2021/11/04 06:19:29;;;;;;;0.20;0.20;;;;;;;7.81;68.22;100586.59;5005878;28;20025;-83
2021/11/04 06:21:55;;;;;;;0.10;0.10;;;;;;;7.88;67.85;100591.78;5004965;28;20038;-83
2021/11/04 06:24:21;;;;;;;0.10;0.10;;;;;;;7.94;68.58;100588.19;5003229;28;20691;-83
2021/11/04 06:26:47;;;;;;;0.13;0.13;;;;;;;7.97;68.43;100597.84;5003699;28;20503;-83
2021/11/04 06:29:13;;;;;;;0.10;0.10;;;;;;;7.98;68.29;100592.53;5006879;28;20042;-83
2021/11/04 06:31:40;;;;;;;0.20;0.20;;;;;;;7.97;68.00;100593.41;5000164;28;20117;-83
2021/11/04 06:34:07;;;;;;;0.17;0.17;;;;;;;7.95;67.88;100595.22;4999740;28;20058;-80
2021/11/04 06:36:33;;;;;;;0.28;0.28;;;;;;;7.95;68.22;100600.50;5000683;28;20027;-82
2021/11/04 06:39:00;;;;;;;0.20;0.20;;;;;;;7.96;67.68;100604.00;4998000;28;20034;-82
2021/11/04 06:41:26;;;;;;;0.20;0.20;;;;;;;7.97;67.70;100603.97;5009609;28;20092;-82
2021/11/04 06:43:53;;;;;;;0.10;0.10;;;;;;;7.97;68.19;100606.59;5005472;28;20038;-84
2021/11/04 06:46:24;;;;;;;0.50;0.50;;;;;;;8.03;68.17;100601.25;5002177;28;20465;-82
2021/11/04 06:49:01;;;;;;;0.25;0.25;;;;;;;8.07;68.05;100608.25;5006692;28;20038;-82
2021/11/04 06:51:29;;;;;;;0.10;0.10;;;;;;;8.05;67.79;100606.50;5005764;28;20031;-82
2021/11/04 06:53:58;;;;;;;0.10;0.10;;;;;;;8.08;68.05;100617.03;5006664;28;20072;-83
2021/11/04 06:56:25;;;;;;;0.20;0.20;;;;;;;8.13;67.92;100616.97;5001715;28;20070;-83
2021/11/04 06:58:56;;;;;;;0.20;0.20;;;;;;;8.19;68.04;100619.53;5000167;28;20111;-83
2021/11/04 07:01:23;;;;;;;0.10;0.10;;;;;;;8.21;68.32;100623.91;5002551;28;20031;-83
2021/11/04 07:03:57;;;;;;;0.10;0.10;;;;;;;8.29;68.11;100631.69;5004742;28;20029;-89
2021/11/04 07:06:27;;;;;;;0.20;0.20;;;;;;;8.32;68.00;100636.06;5009865;28;20101;-84
2021/11/04 07:08:58;;;;;;;0.10;0.10;;;;;;;8.38;68.55;100636.84;5011972;28;20484;-84
2021/11/04 07:11:25;;;;;;;0.10;0.10;;;;;;;8.43;68.26;100640.28;5012827;28;20200;-84
2021/11/04 07:13:53;;;;;;;0.20;0.20;;;;;;;8.51;68.23;100637.59;5015647;28;20030;-83
2021/11/04 07:16:22;;;;;;;0.20;0.20;;;;;;;8.59;68.45;100637.47;5015147;28;20117;-83
2021/11/04 07:18:52;;;;;;;0.10;0.10;;;;;;;8.68;68.46;100633.81;5015516;28;20551;-83
2021/11/04 07:21:42;;;;;;;0.22;0.22;;;;;;;8.84;68.04;100632.66;5015399;28;20042;-83
2021/11/04 07:24:12;;;;;;;0.50;0.50;;;;;;;8.83;68.10;100630.91;5015227;28;20477;-83
2021/11/04 07:26:41;;;;;;;0.10;0.10;;;;;;;8.91;68.65;100625.53;5015825;28;20036;-83
2021/11/04 07:29:09;;;;;;;0.10;0.10;;;;;;;8.98;68.67;100627.13;5014899;28;20041;-83
2021/11/04 07:31:41;;;;;;;0.20;0.20;;;;;;;9.07;68.49;100619.06;5013001;28;20034;-82
2021/11/04 07:34:11;;;;;;;0.10;0.10;;;;;;;9.15;68.54;100626.84;5015006;28;20044;-83
2021/11/04 07:36:39;;;;;;;0.20;0.20;;;;;;;9.22;69.09;100624.97;5012513;28;20026;-82
2021/11/04 07:39:07;;;;;;;0.20;0.20;;;;;;;9.27;68.68;100630.19;5015392;28;20030;-82
2021/11/04 07:41:35;;;;;;;0.13;0.13;;;;;;;9.33;68.53;100636.25;5014541;28;20026;-83
2021/11/04 07:44:03;;;;;;;0.13;0.13;;;;;;;9.41;68.95;100637.84;5014993;28;20125;-82
2021/11/04 07:46:30;;;;;;;0.20;0.20;;;;;;;9.47;69.06;100645.69;5014230;28;20044;-82
2021/11/04 07:48:56;;;;;;;0.90;0.90;;;;;;;9.57;68.53;100647.28;5013429;28;20382;-82
2021/11/04 07:51:23;;;;;;;0.20;0.20;;;;;;;9.67;68.85;100642.66;5013859;28;20026;-82
2021/11/04 07:53:49;;;;;;;0.20;0.20;;;;;;;9.77;69.00;100643.34;5014029;28;20029;-82
2021/11/04 07:56:16;;;;;;;0.50;0.50;;;;;;;9.84;69.10;100634.38;5011741;28;20092;-82
2021/11/04 07:58:42;;;;;;;0.10;0.10;;;;;;;9.92;68.80;100637.75;5013169;28;20601;-82
2021/11/04 08:01:08;;;;;;;0.13;0.13;;;;;;;9.99;69.23;100638.50;5013806;28;20389;-81
2021/11/04 08:03:35;;;;;;;0.20;0.20;;;;;;;10.02;69.04;100639.31;5014326;28;20083;-82
2021/11/04 08:06:01;;;;;;;0.13;0.13;;;;;;;10.06;69.18;100644.53;5014750;28;20140;-82
2021/11/04 08:08:27;;;;;;;0.10;0.10;;;;;;;10.08;69.24;100637.41;5014160;28;20109;-81
2021/11/04 08:10:54;;;;;;;0.10;0.10;;;;;;;10.14;68.95;100647.88;5014277;28;20041;-83
2021/11/04 08:13:21;;;;;;;0.10;0.10;;;;;;;10.19;69.26;100652.19;5014767;28;20022;-83
2021/11/04 08:15:48;;;;;;;0.10;0.10;;;;;;;10.23;69.54;100641.50;5014533;28;20076;-82
2021/11/04 08:18:14;;;;;;;0.35;0.35;;;;;;;10.28;69.06;100634.34;5014110;28;20107;-84
2021/11/04 08:20:41;;;;;;;0.15;0.15;;;;;;;10.28;68.68;100632.59;5014422;28;20029;-84
2021/11/04 08:23:11;;;;;;;0.10;0.10;;;;;;;10.32;68.91;100641.34;5013543;28;20521;-86
2021/11/04 08:25:38;;;;;;;0.10;0.10;;;;;;;10.28;68.89;100637.88;5013964;28;20088;-83
2021/11/04 08:28:05;;;;;;;0.13;0.13;;;;;;;10.29;68.75;100636.97;5007929;28;20045;-82
2021/11/04 08:30:32;;;;;;;0.10;0.10;;;;;;;10.32;68.75;100636.88;5006999;28;20028;-83
2021/11/04 08:32:58;;;;;;;0.30;0.30;;;;;;;10.38;68.79;100641.22;5013917;28;20030;-83
2021/11/04 08:35:25;;;;;;;0.20;0.20;;;;;;;10.46;68.82;100649.00;5013779;28;20030;-83
2021/11/04 08:37:52;;;;;;;0.17;0.17;;;;;;;10.50;68.97;100650.66;5013929;28;20343;-83
2021/11/04 08:40:18;;;;;;;0.20;0.20;;;;;;;10.60;68.87;100648.66;5013794;28;20026;-83
2021/11/04 08:42:45;;;;;;;0.10;0.10;;;;;;;10.70;68.96;100649.34;5013863;28;20018;-85
2021/11/04 08:45:12;;;;;;;0.10;0.10;;;;;;;10.78;69.25;100648.25;5012636;28;20115;-83
2021/11/04 08:47:39;;;;;;;0.15;0.15;;;;;;;10.94;69.26;100651.41;5012680;28;20593;-83
2021/11/04 08:50:07;;;;;;;0.10;0.10;;;;;;;11.05;69.52;100648.44;5013152;28;20049;-83
2021/11/04 08:52:34;;;;;;;0.10;0.10;;;;;;;11.14;68.76;100652.66;5013341;28;20026;-82
2021/11/04 08:55:02;;;;;;;0.10;0.10;;;;;;;11.22;68.89;100660.44;5010314;28;20625;-82
2021/11/04 08:57:29;;;;;;;0.20;0.20;;;;;;;11.28;69.08;100661.13;5012647;28;20029;-82
2021/11/04 08:59:55;;;;;;;0.10;0.10;;;;;;;11.39;69.58;100662.63;5012863;28;20025;-83
2021/11/04 09:02:22;;;;;;;0.15;0.15;;;;;;;11.47;69.25;100668.63;5009214;28;20108;-83
2021/11/04 09:04:48;;;;;;;0.10;0.10;;;;;;;11.55;69.56;100661.34;5004065;28;20034;-83
2021/11/04 09:07:18;;;;;;;0.17;0.17;;;;;;;11.62;69.01;100662.88;5004390;28;20021;-83
2021/11/04 09:09:44;;;;;;;0.35;0.35;;;;;;;11.74;69.19;100667.00;4998649;28;20474;-83
2021/11/04 09:12:11;;;;;;;0.10;0.10;;;;;;;11.86;69.02;100670.22;5003993;28;20036;-82
2021/11/04 09:14:37;;;;;;;0.25;0.25;;;;;;;11.86;68.59;100673.72;5001529;28;20047;-83
2021/11/04 09:17:04;;;;;;;0.10;0.10;;;;;;;11.92;68.70;100672.69;5007105;28;20030;-83
2021/11/04 09:19:30;;;;;;;0.22;0.22;;;;;;;11.97;68.63;100669.06;5013149;28;20500;-81
2021/11/04 09:21:58;;;;;;;0.10;0.10;;;;;;;11.98;68.94;100662.78;5013196;28;20069;-82
2021/11/04 09:24:26;;;;;;;0.10;0.10;;;;;;;11.97;68.40;100669.06;5012233;28;20030;-82
2021/11/04 09:26:53;;;;;;;0.10;0.10;;;;;;;12.02;68.77;100668.91;5012160;28;20026;-82
2021/11/04 09:29:19;;;;;;;0.10;0.10;;;;;;;12.07;68.34;100666.13;5012551;28;20021;-83
2021/11/04 09:31:46;;;;;;;0.10;0.10;;;;;;;12.16;68.61;100665.84;5012376;28;20473;-82
2021/11/04 09:34:12;;;;;;;0.10;0.10;;;;;;;12.23;68.13;100669.19;5005634;23;20043;-81
2021/11/04 09:36:38;;;;;;;0.10;0.10;;;;;;;12.34;68.39;100663.56;4973359;28;20035;-79
2021/11/04 09:39:05;;;;;;;0.10;0.10;;;;;;;12.38;68.95;100660.75;4973754;28;20027;-82
2021/11/04 09:41:32;;;;;;;0.70;0.70;;;;;;;12.49;68.66;100652.47;4974778;28;20066;-80
2021/11/04 09:44:03;;;;;;;0.10;0.10;;;;;;;12.63;68.34;100654.69;4974288;28;20059;-82
2021/11/04 09:46:33;;;;;;;0.10;0.10;;;;;;;12.74;68.39;100652.53;4955216;28;20042;-82
2021/11/04 09:49:00;;;;;;;0.30;0.30;;;;;;;12.83;67.91;100654.03;4974538;28;20034;-84
2021/11/04 09:51:26;;;;;;;0.10;0.10;;;;;;;12.93;68.04;100647.53;4973811;28;20026;-82
2021/11/04 09:53:53;;;;;;;0.30;0.30;;;;;;;12.87;67.00;100655.69;4973756;28;20085;-83
2021/11/04 09:56:25;;;;;;;0.57;0.57;;;;;;;12.97;66.86;100663.34;4965769;28;20058;-80
2021/11/04 09:58:52;;;;;;;0.10;0.10;;;;;;;12.99;66.68;100656.22;4965632;28;20491;-82
2021/11/04 10:01:25;;;;;;;0.10;0.10;;;;;;;13.09;67.37;100655.84;4970186;28;20058;-83
2021/11/04 10:03:52;;;;;;;0.10;0.10;;;;;;;13.16;66.84;100664.50;4972850;28;20192;-85
2021/11/04 10:06:24;;;;;;;0.10;0.10;;;;;;;13.17;66.51;100660.91;4974422;28;20143;-84
2021/11/04 10:08:53;;;;;;;0.20;0.20;;;;;;;13.22;66.03;100666.06;4971354;28;20438;-86
2021/11/04 10:11:20;;;;;;;0.13;0.13;;;;;;;13.26;65.58;100662.41;4973639;28;20023;-83
2021/11/04 10:13:48;;;;;;;0.10;0.10;;;;;;;13.27;65.43;100665.00;4973508;28;20482;-84
2021/11/04 10:16:16;;;;;;;0.10;0.10;;;;;;;13.29;65.39;100664.09;4974052;28;20018;-80
2021/11/04 10:18:46;;;;;;;0.10;0.10;;;;;;;13.27;65.40;100666.78;4973161;28;20082;-86
2021/11/04 10:21:13;;;;;;;0.10;0.10;;;;;;;13.30;65.88;100665.81;4972355;28;20445;-82
2021/11/04 10:26:28;;;;;;;0.10;0.10;;;;;;;13.27;65.00;100662.34;5081132;27;20400;-84
2021/11/04 10:29:04;;;;;;;0.10;0.10;;;;;;;13.46;64.91;100668.84;5068840;28;20041;-85
2021/11/04 10:31:41;;;;;;;0.10;0.10;;;;;;;13.54;64.38;100662.31;5059190;28;20029;-82
2021/11/04 10:34:28;;;;;;;0.10;0.10;;;;;;;13.64;64.52;100662.00;5050090;28;20041;-79
2021/11/04 10:37:14;;;;;;;0.17;0.17;;;;;;;13.69;63.98;100663.56;5049295;28;20087;-86
2021/11/04 10:39:42;;;;;;;0.10;0.10;;;;;;;13.82;63.86;100672.00;5043241;28;20131;-88
2021/11/04 10:42:08;;;;;;;0.10;0.10;;;;;;;13.92;63.35;100675.19;5033511;28;20038;-82
2021/11/04 10:44:34;;;;;;;0.10;0.10;;;;;;;14.11;63.78;100670.06;5034769;28;20029;-78
2021/11/04 10:47:02;;;;;;;0.15;0.15;;;;;;;14.18;62.79;100670.69;5032089;28;20084;-82
2021/11/04 10:49:43;;;;;;;0.10;0.10;;;;;;;14.30;62.51;100669.34;5035141;28;20488;-83
2021/11/04 10:52:10;;;;;;;0.10;0.10;;;;;;;14.37;63.86;100666.38;5032651;28;20038;-79
2021/11/04 10:54:45;;;;;;;0.08;0.08;;;;;;;14.60;63.70;100661.94;5038600;28;20029;-83
2021/11/04 10:57:12;;;;;;;0.10;0.10;;;;;;;14.68;63.06;100659.88;5034995;28;20099;-84
2021/11/04 10:59:44;;;;;;;0.10;0.10;;;;;;;14.67;62.07;100667.94;5049733;28;20028;-84
2021/11/04 11:04:40;;;;;;;0.10;0.10;;;;;;;14.87;62.28;100670.66;5009288;28;20053;-84
2021/11/04 11:07:07;;;;;;;0.10;0.10;;;;;;;15.01;62.81;100677.25;5010679;28;20027;-84
2021/11/04 11:09:35;;;;;;;0.10;0.10;;;;;;;15.04;62.27;100677.09;5010370;28;20026;-85
2021/11/04 11:12:04;;;;;;;0.13;0.13;;;;;;;15.04;61.99;100682.44;5010694;28;20028;-84
2021/11/04 11:14:33;;;;;;;0.10;0.10;;;;;;;15.12;62.33;100682.16;4991120;28;20088;-83
2021/11/04 11:17:01;;;;;;;0.10;0.10;;;;;;;15.14;60.11;100683.81;4991359;28;20038;-82
2021/11/04 11:19:30;;;;;;;0.10;0.10;;;;;;;15.23;59.48;100682.56;4991258;28;20055;-83
2021/11/04 11:21:57;;;;;;;0.10;0.10;;;;;;;15.35;61.44;100687.38;4990763;28;20173;-84
2021/11/04 11:24:35;;;;;;;0.10;0.10;;;;;;;15.45;61.20;100693.19;4991211;28;20382;-84
2021/11/04 11:27:04;;;;;;;0.10;0.10;;;;;;;15.46;60.57;100699.41;5005493;28;20030;-84
2021/11/04 11:29:34;;;;;;;0.10;0.10;;;;;;;15.40;58.31;100696.97;4990409;28;20038;-83
2021/11/04 11:32:00;;;;;;;0.10;0.10;;;;;;;15.36;58.36;100706.91;4989508;28;20053;-84
2021/11/04 11:34:29;;;;;;;0.10;0.10;;;;;;;15.51;60.34;100708.97;4990431;28;20065;-85
2021/11/04 11:37:13;;;;;;;0.10;0.10;;;;;;;15.59;58.35;100721.09;4981124;28;20035;-84
2021/11/04 11:39:51;;;;;;;0.10;0.10;;;;;;;15.61;58.13;100722.75;4977140;28;20029;-84
2021/11/04 11:42:21;;;;;;;0.10;0.10;;;;;;;15.65;60.00;100726.16;4977868;28;20042;-84
2021/11/04 11:44:53;;;;;;;0.10;0.10;;;;;;;15.67;60.03;100724.31;4977457;28;20124;-84
2021/11/04 11:47:33;;;;;;;0.10;0.10;;;;;;;15.62;59.28;100729.84;4977650;28;20126;-85